Time;durP1;ratioP1;P1;durP2;ratioP2;P2;SDS_P1;SDS_P2;PMS_P1;PMS_P2;Temp;Humidity;BMP_temperature;BMP_pressure;BME280_temperature;BME280_humidity;BME280_pressure;Samples;Min_cycle;Max_cycle;Signal;HPM_P1;HPM_P2
2021/12/03 00:02:07;;;;;;;9.77;6.32;;;;;;;5.47;64.04;94144.38;5007792;28;20449;-63
2021/12/03 00:04:33;;;;;;;11.85;7.78;;;;;;;5.38;64.18;94165.31;4990309;28;20050;-61
2021/12/03 00:06:58;;;;;;;11.52;6.15;;;;;;;5.42;64.21;94174.50;5007531;28;20038;-61
2021/12/03 00:09:24;;;;;;;8.80;5.28;;;;;;;5.36;62.66;94156.94;5007494;28;20062;-61
2021/12/03 00:11:49;;;;;;;9.43;6.28;;;;;;;5.28;63.77;94158.19;5007648;28;20493;-59
2021/12/03 00:14:15;;;;;;;9.38;6.07;;;;;;;5.11;64.72;94137.84;5008297;28;20038;-63
2021/12/03 00:16:40;;;;;;;10.18;6.38;;;;;;;3.39;64.31;93846.94;5011093;28;20794;-59
2021/12/03 00:19:06;;;;;;;10.15;6.45;;;;;;;5.31;64.52;94152.91;5010858;28;20398;-61
2021/12/03 00:21:32;;;;;;;11.43;7.78;;;;;;;5.40;65.02;94158.41;5010731;28;20033;-61
2021/12/03 00:23:57;;;;;;;10.23;6.60;;;;;;;4.93;63.88;94080.94;5011079;28;20416;-62
2021/12/03 00:26:23;;;;;;;8.32;6.18;;;;;;;5.51;63.35;94115.16;5011465;28;20033;-63
2021/12/03 00:28:48;;;;;;;10.02;6.55;;;;;;;5.78;63.40;94165.63;5011159;28;20760;-64
2021/12/03 00:31:14;;;;;;;10.90;6.43;;;;;;;5.64;63.06;94166.41;5010274;28;20034;-61
2021/12/03 00:33:40;;;;;;;11.57;6.78;;;;;;;5.62;63.95;94158.00;5010745;28;20025;-61
2021/12/03 00:36:08;;;;;;;13.00;6.30;;;;;;;5.62;63.83;94140.91;5010581;28;20038;-60
2021/12/03 00:38:40;;;;;;;9.57;5.65;;;;;;;5.75;63.80;94163.25;5010398;28;20186;-60
2021/12/03 00:41:09;;;;;;;11.25;5.82;;;;;;;5.72;63.77;94161.69;5009052;28;20125;-60
2021/12/03 00:43:40;;;;;;;12.65;6.30;;;;;;;5.65;63.77;94150.97;5009924;28;20056;-61
2021/12/03 00:46:08;;;;;;;10.02;5.93;;;;;;;5.58;63.85;94143.75;5010747;28;20030;-61
2021/12/03 00:48:33;;;;;;;9.27;5.78;;;;;;;5.78;63.45;94173.31;5010487;28;20057;-63
2021/12/03 00:50:59;;;;;;;7.45;5.72;;;;;;;5.49;64.56;94145.09;5010691;28;20022;-60
2021/12/03 00:53:25;;;;;;;9.57;5.95;;;;;;;5.67;64.88;94173.91;5010067;28;20038;-60
2021/12/03 00:55:50;;;;;;;9.57;6.20;;;;;;;5.70;64.32;94173.75;5010315;28;20030;-61
2021/12/03 00:58:16;;;;;;;11.57;6.72;;;;;;;5.29;65.09;94116.38;5010185;28;20034;-61
2021/12/03 01:00:41;;;;;;;10.00;6.47;;;;;;;5.48;64.14;94125.56;5010497;28;20065;-61
2021/12/03 01:03:07;;;;;;;10.63;6.78;;;;;;;5.48;64.93;94130.69;5010545;28;20026;-60
2021/12/03 01:05:34;;;;;;;10.32;6.25;;;;;;;5.82;64.77;94155.13;5010225;28;20030;-62
2021/12/03 01:07:59;;;;;;;12.25;7.03;;;;;;;5.83;64.65;94168.75;5009816;28;20088;-61
2021/12/03 01:10:25;;;;;;;9.35;5.85;;;;;;;5.92;63.69;94178.47;5010180;28;20484;-60
2021/12/03 01:12:51;;;;;;;10.85;6.72;;;;;;;5.95;63.86;94159.53;5010554;28;20034;-60
2021/12/03 01:15:21;;;;;;;10.93;6.82;;;;;;;6.02;64.36;94135.28;5010480;28;20025;-62
2021/12/03 01:17:47;;;;;;;11.13;7.60;;;;;;;6.28;62.55;94146.50;5009729;28;20096;-58
2021/12/03 01:20:14;;;;;;;8.43;5.53;;;;;;;6.49;62.37;94151.22;5009959;28;20464;-60
2021/12/03 01:22:41;;;;;;;9.70;5.55;;;;;;;6.54;61.41;94141.53;5009399;28;20026;-60
2021/12/03 01:25:09;;;;;;;8.40;5.55;;;;;;;6.56;62.33;94152.50;5009789;28;20112;-60
2021/12/03 01:27:35;;;;;;;9.18;5.78;;;;;;;6.56;62.32;94129.44;5009233;28;20120;-60
2021/12/03 01:30:01;;;;;;;6.22;3.70;;;;;;;6.74;61.44;94133.44;5009385;28;20120;-59
2021/12/03 01:32:26;;;;;;;8.85;6.07;;;;;;;6.78;61.70;94147.69;5009499;28;20018;-61
2021/12/03 01:34:52;;;;;;;10.70;5.30;;;;;;;6.66;61.38;94106.63;5010086;28;20026;-60
2021/12/03 01:37:17;;;;;;;7.60;5.53;;;;;;;6.96;61.01;94135.47;5009359;28;20501;-61
2021/12/03 01:39:43;;;;;;;7.25;4.93;;;;;;;6.77;61.53;94111.91;5009882;28;20708;-60
2021/12/03 01:42:09;;;;;;;8.68;6.07;;;;;;;6.85;60.75;94149.88;5009114;28;20637;-59
2021/12/03 01:44:34;;;;;;;9.35;6.95;;;;;;;6.39;60.91;94084.38;5008948;28;20110;-59
2021/12/03 01:47:00;;;;;;;11.50;6.63;;;;;;;6.43;61.38;94107.16;5008500;28;20060;-59
2021/12/03 01:49:25;;;;;;;8.88;5.75;;;;;;;6.01;61.12;94085.78;5009636;28;20081;-60
2021/12/03 01:51:51;;;;;;;10.77;6.30;;;;;;;6.27;61.60;94149.97;5009464;28;20033;-60
2021/12/03 01:54:16;;;;;;;8.93;5.90;;;;;;;6.22;61.65;94142.56;5009010;28;20025;-59
2021/12/03 01:56:42;;;;;;;7.93;5.75;;;;;;;6.19;61.68;94145.31;5009319;28;20496;-60
2021/12/03 01:59:08;;;;;;;8.02;5.72;;;;;;;6.16;61.92;94119.88;5009099;28;20033;-61
2021/12/03 02:01:34;;;;;;;11.50;6.22;;;;;;;6.22;61.47;94119.53;5008910;28;20125;-61
2021/12/03 02:04:01;;;;;;;8.25;5.38;;;;;;;6.10;61.66;94086.16;5009663;28;20025;-61
2021/12/03 02:06:28;;;;;;;10.13;5.78;;;;;;;6.31;61.89;94113.00;5008384;28;20049;-60
2021/12/03 02:08:54;;;;;;;9.00;5.97;;;;;;;6.25;61.36;94127.03;5009329;28;20049;-60
2021/12/03 02:11:20;;;;;;;5.35;3.67;;;;;;;6.51;61.10;94134.88;5009010;28;20694;-61
2021/12/03 02:13:46;;;;;;;8.90;5.63;;;;;;;6.36;60.74;94117.88;5008535;28;20040;-60
2021/12/03 02:16:16;;;;;;;7.78;5.35;;;;;;;6.14;61.42;94093.56;5009390;28;20064;-62
2021/12/03 02:18:41;;;;;;;6.75;4.97;;;;;;;6.11;61.54;94108.28;5008519;28;20477;-60
2021/12/03 02:21:08;;;;;;;8.05;5.20;;;;;;;6.44;61.76;94124.19;5009051;28;20120;-61
2021/12/03 02:23:35;;;;;;;7.93;5.38;;;;;;;6.35;62.50;94114.50;5008506;28;20179;-60
2021/12/03 02:26:01;;;;;;;7.57;5.35;;;;;;;6.24;62.50;94084.41;5008753;28;20637;-60
2021/12/03 02:28:35;;;;;;;8.38;5.10;;;;;;;6.54;62.06;94082.63;5008710;28;20087;-60
2021/12/03 02:31:00;;;;;;;8.63;5.43;;;;;;;6.58;62.14;94109.69;5007462;28;20112;-60
2021/12/03 02:33:26;;;;;;;6.97;4.88;;;;;;;6.70;61.82;94118.34;5008558;28;20096;-60
2021/12/03 02:35:53;;;;;;;6.55;4.90;;;;;;;6.83;61.49;94110.72;5008473;28;20794;-60
2021/12/03 02:38:22;;;;;;;8.48;5.30;;;;;;;6.89;60.93;94110.34;5008041;28;20410;-61
2021/12/03 02:40:49;;;;;;;9.50;5.53;;;;;;;6.73;60.50;94084.88;5008847;28;20042;-61
2021/12/03 02:43:15;;;;;;;7.53;5.40;;;;;;;6.62;61.10;94080.41;5008089;28;20210;-61
2021/12/03 02:45:41;;;;;;;8.85;4.82;;;;;;;6.71;60.89;94120.00;5008691;28;20040;-59
2021/12/03 02:48:06;;;;;;;7.38;4.82;;;;;;;6.46;60.65;94077.16;5008700;28;20022;-61
2021/12/03 02:50:32;;;;;;;10.90;5.38;;;;;;;6.71;60.80;94110.56;5008671;28;20038;-60
2021/12/03 02:52:58;;;;;;;7.32;4.80;;;;;;;6.44;61.41;94078.09;5008784;28;20100;-61
2021/12/03 02:55:26;;;;;;;6.72;4.72;;;;;;;6.67;61.83;94101.44;5007753;28;20126;-61
2021/12/03 02:57:51;;;;;;;7.00;5.00;;;;;;;6.67;60.71;94070.69;5008699;28;20030;-59
2021/12/03 03:00:20;;;;;;;9.77;4.93;;;;;;;6.59;61.08;94049.84;5007006;28;20049;-61
2021/12/03 03:02:46;;;;;;;8.43;5.40;;;;;;;6.74;61.59;94102.69;5008826;28;20095;-59
2021/12/03 03:05:14;;;;;;;10.18;5.60;;;;;;;6.83;61.38;94116.66;5008407;28;20026;-61
2021/12/03 03:07:40;;;;;;;7.65;5.35;;;;;;;6.81;61.32;94111.63;5007709;28;20385;-61
2021/12/03 03:10:10;;;;;;;8.07;5.53;;;;;;;6.68;61.01;94056.16;5008580;28;20036;-60
2021/12/03 03:12:36;;;;;;;9.02;5.30;;;;;;;6.98;60.46;94132.81;5007902;28;20023;-62
2021/12/03 03:15:02;;;;;;;8.27;5.05;;;;;;;7.06;60.26;94140.84;5008495;28;20026;-62
2021/12/03 03:17:30;;;;;;;6.20;4.65;;;;;;;6.91;59.39;94113.63;5007813;28;20034;-60
2021/12/03 03:19:57;;;;;;;8.27;5.60;;;;;;;7.00;60.39;94125.84;5007787;28;20109;-61
2021/12/03 03:22:23;;;;;;;8.07;4.88;;;;;;;6.85;60.88;94088.38;5008207;28;20044;-61
2021/12/03 03:24:51;;;;;;;8.10;5.25;;;;;;;6.98;60.69;94102.06;5007941;28;20026;-60
2021/12/03 03:27:17;;;;;;;7.28;4.43;;;;;;;6.81;60.38;94075.75;5008345;28;20018;-61
2021/12/03 03:29:44;;;;;;;6.70;4.40;;;;;;;7.00;60.53;94130.97;5007804;28;20111;-59
2021/12/03 03:32:10;;;;;;;6.78;4.57;;;;;;;7.05;60.35;94133.25;5008125;28;20030;-60
2021/12/03 03:34:36;;;;;;;7.57;4.72;;;;;;;7.13;60.28;94128.47;5007331;28;20490;-65
2021/12/03 03:37:02;;;;;;;8.13;4.55;;;;;;;6.98;59.98;94096.94;5007551;28;20259;-61
2021/12/03 03:39:27;;;;;;;7.05;4.32;;;;;;;6.95;60.45;94092.84;5007554;28;20041;-61
2021/12/03 03:41:52;;;;;;;7.60;4.90;;;;;;;7.09;61.12;94101.41;5007708;28;20022;-59
2021/12/03 03:44:19;;;;;;;8.35;4.47;;;;;;;7.13;60.49;94106.22;5007823;28;20026;-61
2021/12/03 03:46:45;;;;;;;9.45;4.63;;;;;;;7.35;60.24;94138.19;5007952;28;20029;-60
2021/12/03 03:49:11;;;;;;;7.32;4.72;;;;;;;7.27;60.04;94109.66;5010190;28;20493;-61
2021/12/03 03:51:37;;;;;;;8.68;5.10;;;;;;;7.30;60.47;94115.41;5011706;28;20026;-60
2021/12/03 03:54:03;;;;;;;8.70;4.47;;;;;;;7.30;60.40;94137.66;5011262;28;20098;-60
2021/12/03 03:56:29;;;;;;;6.82;4.60;;;;;;;7.40;60.09;94113.06;5011557;28;20544;-59
2021/12/03 03:58:55;;;;;;;8.20;4.40;;;;;;;7.50;60.53;94129.47;5011057;28;20052;-60
2021/12/03 04:01:21;;;;;;;9.32;4.50;;;;;;;7.25;60.75;94122.56;5011380;28;20037;-60
2021/12/03 04:03:47;;;;;;;6.72;4.45;;;;;;;7.19;61.25;94115.25;5011303;28;20028;-60
2021/12/03 04:06:15;;;;;;;9.90;5.15;;;;;;;7.27;61.77;94140.41;5010116;28;20407;-60
2021/12/03 04:08:40;;;;;;;7.82;5.10;;;;;;;7.22;61.85;94133.00;5011091;28;20136;-59
2021/12/03 04:11:06;;;;;;;6.75;4.35;;;;;;;6.84;61.55;94064.50;5011398;28;20113;-61
2021/12/03 04:13:31;;;;;;;9.82;5.78;;;;;;;7.17;62.03;94110.22;5011136;28;20060;-60
2021/12/03 04:15:57;;;;;;;6.70;4.32;;;;;;;7.21;62.19;94133.09;5011121;28;20061;-61
2021/12/03 04:18:22;;;;;;;9.15;5.13;;;;;;;7.33;61.69;94134.91;5010903;28;20018;-61
2021/12/03 04:20:48;;;;;;;8.57;4.80;;;;;;;7.29;61.71;94141.94;5009417;28;20038;-61
2021/12/03 04:23:18;;;;;;;12.95;6.13;;;;;;;7.34;61.37;94139.91;5011437;28;20042;-61
2021/12/03 04:25:44;;;;;;;9.77;4.75;;;;;;;7.28;62.00;94103.56;5011153;28;20033;-60
2021/12/03 04:28:10;;;;;;;8.13;5.30;;;;;;;7.29;62.39;94120.63;5011134;28;20022;-60
2021/12/03 04:30:36;;;;;;;6.78;4.65;;;;;;;7.43;61.69;94135.94;5010444;28;20030;-59
2021/12/03 04:33:02;;;;;;;21.33;10.60;;;;;;;7.38;61.67;94117.47;5010740;28;20033;-60
2021/12/03 04:35:28;;;;;;;13.55;7.55;;;;;;;7.10;62.13;94091.03;5011098;28;20049;-61
2021/12/03 04:37:54;;;;;;;11.85;7.32;;;;;;;7.47;61.51;94141.69;5010453;28;20073;-60
2021/12/03 04:40:21;;;;;;;10.18;6.40;;;;;;;7.31;62.21;94118.78;5010978;28;20892;-59
2021/12/03 04:42:47;;;;;;;5.90;3.55;;;;;;;7.50;61.90;94154.31;5007826;28;20742;-63
2021/12/03 04:45:18;;;;;;;9.35;5.40;;;;;;;7.58;61.30;94157.22;5010421;28;20034;-60
2021/12/03 04:47:44;;;;;;;6.80;4.20;;;;;;;7.54;60.74;94119.84;5010786;28;20030;-60
2021/12/03 04:50:11;;;;;;;7.85;5.25;;;;;;;7.57;61.50;94124.78;5010447;28;20456;-59
2021/12/03 04:52:37;;;;;;;8.38;4.68;;;;;;;7.53;60.51;94126.72;5010032;28;20026;-61
2021/12/03 04:55:03;;;;;;;5.43;3.67;;;;;;;7.86;58.75;94130.56;5009079;28;20111;-61
2021/12/03 04:57:29;;;;;;;6.93;4.22;;;;;;;7.82;59.53;94148.81;5008792;28;20030;-60
2021/12/03 04:59:54;;;;;;;6.03;3.83;;;;;;;7.96;59.22;94176.97;5009939;28;20034;-60
2021/12/03 05:02:21;;;;;;;9.38;5.03;;;;;;;7.97;59.35;94180.34;5007152;28;20422;-64
2021/12/03 05:04:48;;;;;;;11.57;5.45;;;;;;;8.07;59.66;94179.66;5006543;28;20057;-62
2021/12/03 05:07:29;;;;;;;7.80;5.45;;;;;;;8.14;59.22;94133.03;5006421;28;20038;-61
2021/12/03 05:09:55;;;;;;;7.40;4.70;;;;;;;8.08;59.98;94129.13;5005966;28;20405;-62
2021/12/03 05:12:21;;;;;;;7.10;3.90;;;;;;;8.13;58.19;94141.66;5007187;28;20100;-62
2021/12/03 05:14:46;;;;;;;5.50;3.75;;;;;;;8.26;58.64;94175.84;5006606;28;20037;-61
2021/12/03 05:17:12;;;;;;;8.65;4.15;;;;;;;8.29;58.41;94155.91;5006295;28;20087;-62
2021/12/03 05:19:37;;;;;;;6.47;4.55;;;;;;;8.08;59.30;94154.78;5003749;28;20563;-62
2021/12/03 05:22:03;;;;;;;6.93;3.75;;;;;;;8.20;58.81;94160.84;5006546;28;20042;-61
2021/12/03 05:24:29;;;;;;;6.03;3.65;;;;;;;8.46;58.22;94157.38;5006225;28;20581;-62
2021/12/03 05:26:55;;;;;;;5.38;3.90;;;;;;;8.49;57.62;94165.78;5006485;28;20034;-62
2021/12/03 05:29:21;;;;;;;5.85;4.47;;;;;;;8.46;57.51;94153.97;5006466;28;20045;-61
2021/12/03 05:31:47;;;;;;;8.27;3.97;;;;;;;8.68;57.39;94184.16;5006661;28;20507;-61
2021/12/03 05:34:15;;;;;;;6.45;3.78;;;;;;;8.60;57.19;94163.31;5009726;28;20045;-61
2021/12/03 05:36:40;;;;;;;9.13;4.72;;;;;;;8.80;56.67;94152.47;5007823;28;20520;-60
2021/12/03 05:39:06;;;;;;;8.73;3.80;;;;;;;8.74;55.83;94137.47;4995433;28;20043;-60
2021/12/03 05:41:33;;;;;;;6.80;3.72;;;;;;;9.01;55.39;94191.28;5007447;28;20091;-62
2021/12/03 05:43:59;;;;;;;4.95;3.03;;;;;;;9.10;55.55;94183.84;5007192;28;20033;-60
2021/12/03 05:46:24;;;;;;;5.82;4.07;;;;;;;9.07;55.44;94189.19;5009550;28;20032;-61
2021/12/03 05:48:50;;;;;;;6.95;3.97;;;;;;;9.08;56.08;94203.72;5009529;28;20022;-60
2021/12/03 05:51:15;;;;;;;6.28;3.55;;;;;;;9.30;54.75;94214.13;5008372;28;20088;-61
2021/12/03 05:53:41;;;;;;;7.88;3.85;;;;;;;8.90;55.75;94144.13;5009537;28;20056;-60
2021/12/03 05:56:06;;;;;;;8.35;5.72;;;;;;;9.11;56.10;94206.88;5008952;28;20029;-61
2021/12/03 05:58:32;;;;;;;7.55;5.28;;;;;;;8.92;56.32;94176.50;5008527;28;20025;-63
2021/12/03 06:00:57;;;;;;;7.30;4.30;;;;;;;8.60;55.77;94107.59;5009812;28;20026;-61
2021/12/03 06:03:23;;;;;;;6.07;3.75;;;;;;;9.56;53.88;94190.88;5009652;28;20022;-61
2021/12/03 06:05:49;;;;;;;5.97;2.80;;;;;;;9.47;53.64;94124.63;5009213;28;20066;-62
2021/12/03 06:08:15;;;;;;;10.88;3.92;;;;;;;9.81;53.65;94184.75;5008477;28;20409;-63
2021/12/03 06:10:42;;;;;;;8.25;3.50;;;;;;;9.83;53.68;94184.66;5008140;28;20091;-62
2021/12/03 06:13:07;;;;;;;6.78;3.55;;;;;;;9.12;53.91;94076.56;5009080;28;20026;-61
2021/12/03 06:15:33;;;;;;;9.45;3.53;;;;;;;9.86;53.14;94162.06;5009197;28;20404;-61
2021/12/03 06:17:58;;;;;;;5.60;3.15;;;;;;;10.13;52.28;94209.88;5008563;28;20026;-61
2021/12/03 06:20:24;;;;;;;4.75;3.22;;;;;;;9.99;52.50;94177.44;5007963;28;20029;-59
2021/12/03 06:22:50;;;;;;;6.40;3.70;;;;;;;10.22;52.56;94204.06;5008680;28;20508;-60
2021/12/03 06:25:18;;;;;;;6.03;3.72;;;;;;;10.10;51.54;94159.44;5009000;28;20030;-61
2021/12/03 06:27:43;;;;;;;5.82;3.83;;;;;;;10.30;51.95;94203.50;5009184;28;20041;-60
2021/12/03 06:30:13;;;;;;;7.32;3.97;;;;;;;10.05;51.91;94160.69;5008276;28;20029;-63
2021/12/03 06:32:40;;;;;;;6.80;3.70;;;;;;;10.27;52.48;94217.41;5008828;28;20393;-61
2021/12/03 06:35:08;;;;;;;7.95;3.80;;;;;;;10.04;52.32;94172.75;5008943;28;20041;-60
2021/12/03 06:37:34;;;;;;;5.05;3.60;;;;;;;10.37;53.27;94221.94;5008558;28;20060;-61
2021/12/03 06:40:01;;;;;;;6.72;4.25;;;;;;;10.41;52.05;94216.44;5008844;28;20137;-62
2021/12/03 06:42:27;;;;;;;8.40;3.80;;;;;;;10.41;52.47;94211.28;5008133;28;20487;-60
2021/12/03 06:44:53;;;;;;;5.95;3.10;;;;;;;10.90;51.62;94205.88;5008560;28;20477;-60
2021/12/03 06:47:18;;;;;;;6.50;3.17;;;;;;;11.15;50.54;94202.22;5008174;28;20087;-62
2021/12/03 06:49:44;;;;;;;7.28;3.65;;;;;;;11.18;50.30;94196.81;5008455;28;20034;-60
2021/12/03 06:52:14;;;;;;;5.68;2.70;;;;;;;11.08;49.71;94191.53;5007491;28;20457;-61
2021/12/03 06:54:41;;;;;;;8.52;3.33;;;;;;;11.01;50.11;94180.09;5008080;28;20103;-62
2021/12/03 06:57:07;;;;;;;10.55;3.70;;;;;;;11.05;50.71;94202.09;5008260;28;20057;-60
2021/12/03 06:59:34;;;;;;;7.13;3.70;;;;;;;10.99;50.72;94215.50;5007944;28;20612;-61
2021/12/03 07:02:00;;;;;;;7.93;4.13;;;;;;;11.12;50.31;94236.00;5008347;28;20100;-62
2021/12/03 07:04:25;;;;;;;7.55;3.50;;;;;;;10.72;50.67;94174.59;5007880;28;20485;-59
2021/12/03 07:06:51;;;;;;;7.20;3.58;;;;;;;11.13;49.99;94215.22;5005722;28;20029;-60
2021/12/03 07:09:17;;;;;;;5.55;3.47;;;;;;;11.29;49.85;94224.38;5005864;28;20037;-59
2021/12/03 07:11:43;;;;;;;9.38;3.97;;;;;;;11.38;49.63;94249.47;5005157;28;20030;-59
2021/12/03 07:14:09;;;;;;;6.25;3.83;;;;;;;11.30;49.86;94207.94;5004497;28;20116;-65
2021/12/03 07:16:35;;;;;;;9.18;4.47;;;;;;;11.24;49.74;94195.53;5005214;28;20026;-69
2021/12/03 07:19:01;;;;;;;8.77;4.50;;;;;;;11.52;49.63;94230.28;5003673;28;20034;-70
2021/12/03 07:21:26;;;;;;;7.10;3.72;;;;;;;11.45;49.17;94221.41;4998067;28;20030;-70
2021/12/03 07:23:53;;;;;;;7.50;3.78;;;;;;;11.51;48.67;94226.91;5006628;28;20030;-69
2021/12/03 07:26:19;;;;;;;6.57;4.22;;;;;;;11.77;49.21;94242.06;5009070;28;20100;-62
2021/12/03 07:28:45;;;;;;;8.93;5.05;;;;;;;11.72;49.33;94208.88;5008054;28;20045;-63
2021/12/03 07:31:11;;;;;;;7.82;3.75;;;;;;;11.67;49.58;94233.41;5008775;28;20018;-62
2021/12/03 07:33:37;;;;;;;9.02;3.40;;;;;;;11.94;48.96;94213.16;5008373;28;20034;-61
2021/12/03 07:36:05;;;;;;;21.45;15.57;;;;;;;12.26;48.88;94227.78;5009031;28;20168;-64
2021/12/03 07:38:30;;;;;;;20.60;15.93;;;;;;;12.28;48.03;94183.72;5008472;28;20077;-65
2021/12/03 07:40:56;;;;;;;15.85;11.43;;;;;;;12.58;47.06;94180.34;5008452;28;20076;-64
2021/12/03 07:43:21;;;;;;;9.93;5.18;;;;;;;12.87;46.83;94203.75;5008186;28;20553;-64
2021/12/03 07:45:48;;;;;;;20.38;12.77;;;;;;;13.09;46.73;94217.44;5007524;28;20515;-64
2021/12/03 07:48:14;;;;;;;18.02;10.25;;;;;;;13.27;46.82;94224.56;5008155;28;20041;-64
2021/12/03 07:50:41;;;;;;;31.15;23.02;;;;;;;13.55;45.77;94235.97;5005979;28;20030;-63
2021/12/03 07:53:08;;;;;;;45.40;31.50;;;;;;;13.87;44.96;94232.31;4989415;28;20033;-63
2021/12/03 07:55:35;;;;;;;23.02;13.18;;;;;;;13.53;44.01;94149.81;5004886;28;20041;-63
2021/12/03 07:58:04;;;;;;;27.60;19.38;;;;;;;14.12;44.29;94224.00;5008528;28;20040;-63
2021/12/03 08:00:30;;;;;;;55.47;30.05;;;;;;;14.21;44.19;94244.88;5008103;28;20560;-66
2021/12/03 08:02:55;;;;;;;28.50;16.17;;;;;;;14.13;43.19;94210.09;5008504;28;20459;-66
2021/12/03 08:05:21;;;;;;;14.23;8.50;;;;;;;14.25;44.16;94230.66;5007929;28;20045;-68
2021/12/03 08:07:48;;;;;;;10.02;6.22;;;;;;;14.25;43.31;94236.69;5009451;28;20042;-65
2021/12/03 08:10:15;;;;;;;9.65;4.20;;;;;;;14.28;43.07;94223.44;5011031;28;20037;-65
2021/12/03 08:12:41;;;;;;;8.68;2.67;;;;;;;14.11;42.42;94208.59;5008827;28;20030;-65
2021/12/03 08:15:08;;;;;;;8.13;2.50;;;;;;;14.38;42.46;94187.13;5011055;28;20026;-66
2021/12/03 08:17:33;;;;;;;8.13;4.20;;;;;;;14.67;42.64;94241.53;5010180;28;20475;-65
2021/12/03 08:20:00;;;;;;;10.82;4.35;;;;;;;14.67;41.87;94249.31;5010674;28;20025;-67
2021/12/03 08:22:26;;;;;;;7.13;3.38;;;;;;;14.75;41.79;94248.63;5010403;28;20033;-65
2021/12/03 08:24:51;;;;;;;7.43;5.03;;;;;;;15.59;40.48;94220.91;5010816;28;20033;-67
2021/12/03 08:27:17;;;;;;;14.65;7.43;;;;;;;15.81;40.17;94243.09;5010931;28;20037;-66
2021/12/03 08:29:43;;;;;;;11.52;4.10;;;;;;;15.90;39.93;94231.81;5009536;28;20033;-67
2021/12/03 08:32:10;;;;;;;23.02;13.75;;;;;;;16.49;39.15;94255.53;5010691;28;20026;-67
2021/12/03 08:34:36;;;;;;;7.95;4.00;;;;;;;16.33;38.86;94248.44;5009542;28;20085;-67
2021/12/03 08:37:02;;;;;;;6.93;3.10;;;;;;;16.02;39.43;94257.59;5002027;28;20050;-68
2021/12/03 08:39:30;;;;;;;15.88;7.68;;;;;;;15.76;39.99;94227.94;5009247;28;20220;-67
2021/12/03 08:41:56;;;;;;;12.95;5.85;;;;;;;15.84;40.02;94255.81;5010646;28;20030;-68
2021/12/03 08:44:21;;;;;;;9.32;4.35;;;;;;;15.35;40.50;94200.72;5009886;28;20025;-66
2021/12/03 08:46:52;;;;;;;10.95;4.93;;;;;;;15.25;39.87;94193.78;5010329;28;20195;-67
2021/12/03 08:52:21;;;;;;;4.55;1.80;;;;;;;14.82;39.68;94247.13;5010102;28;20518;-66
2021/12/03 08:54:52;;;;;;;18.27;10.65;;;;;;;14.70;40.76;94246.44;5009698;28;20413;-66
2021/12/03 08:57:22;;;;;;;11.50;6.68;;;;;;;14.88;41.03;94224.97;5010997;28;20034;-68
2021/12/03 08:59:50;;;;;;;13.27;6.93;;;;;;;14.96;41.59;94260.59;5010284;28;20026;-66
2021/12/03 09:02:15;;;;;;;12.63;7.18;;;;;;;14.88;41.82;94259.50;5010408;28;20030;-66
2021/12/03 09:04:41;;;;;;;7.05;4.10;;;;;;;14.89;41.62;94278.53;5010071;28;20030;-68
2021/12/03 09:07:07;;;;;;;14.18;7.45;;;;;;;14.94;41.77;94262.50;5008217;28;20136;-78
2021/12/03 09:09:32;;;;;;;10.20;5.10;;;;;;;14.73;41.74;94262.72;5009629;28;20038;-69
2021/12/03 09:11:58;;;;;;;8.07;3.70;;;;;;;14.06;42.08;94190.84;5010007;28;20033;-75
2021/12/03 09:22:18;;;;;;;9.80;4.28;;;;;;;14.39;42.61;94261.38;5007769;28;20121;-72
2021/12/03 09:24:44;;;;;;;6.93;2.88;;;;;;;14.31;41.71;94275.03;5008807;28;20409;-72
2021/12/03 09:27:09;;;;;;;13.80;4.55;;;;;;;14.53;42.26;94239.38;5009763;28;20026;-73
2021/12/03 09:29:36;;;;;;;8.70;4.10;;;;;;;14.07;42.11;94183.88;5009055;28;20443;-71
2021/12/03 09:32:03;;;;;;;7.05;2.72;;;;;;;14.20;40.81;94205.16;5008381;28;20044;-71
2021/12/03 09:34:33;;;;;;;5.38;2.72;;;;;;;14.39;40.72;94230.25;5008505;28;20022;-71
2021/12/03 09:36:59;;;;;;;11.55;6.00;;;;;;;14.51;40.68;94251.66;5009288;28;20041;-69
2021/12/03 09:39:24;;;;;;;6.80;2.70;;;;;;;14.51;40.13;94267.22;5009684;28;20524;-71
2021/12/03 09:41:53;;;;;;;7.88;2.55;;;;;;;14.26;40.63;94220.16;5008821;28;20026;-70
2021/12/03 09:44:20;;;;;;;9.80;5.70;;;;;;;14.64;40.97;94264.34;5008754;28;20488;-71
2021/12/03 09:46:47;;;;;;;15.13;4.78;;;;;;;14.60;41.12;94242.25;5008673;28;20020;-71
2021/12/03 09:49:32;;;;;;;9.07;3.08;;;;;;;14.28;40.85;94205.28;5009433;28;20132;-69
2021/12/03 09:54:36;;;;;;;9.18;4.13;;;;;;;14.59;40.80;94222.41;5008965;28;20101;-71
2021/12/03 09:57:08;;;;;;;8.23;2.33;;;;;;;14.79;39.54;94238.78;5009576;28;20030;-69
2021/12/03 10:02:31;;;;;;;9.50;3.75;;;;;;;14.43;39.73;94169.38;5005098;28;20128;-74
2021/12/03 10:13:16;;;;;;;13.75;7.38;;;;;;;15.12;39.72;94250.44;4991829;28;20069;-70
2021/12/03 10:16:01;;;;;;;4.60;2.28;;;;;;;15.10;39.00;94243.72;5001879;28;20057;-76
2021/12/03 10:18:45;;;;;;;8.40;2.78;;;;;;;15.05;38.86;94252.78;5008040;28;20034;-72
2021/12/03 10:37:46;;;;;;;7.20;2.92;;;;;;;17.67;34.29;94220.34;5008074;28;20502;-69
2021/12/03 11:34:48;;;;;;;8.25;4.15;;;;;;;16.18;35.52;94179.72;4948238;28;20150;-72
2021/12/03 11:52:09;;;;;;;11.00;4.15;;;;;;;16.92;34.46;94213.22;4890328;29;20738;-70
2021/12/03 12:37:20;;;;;;;11.93;5.15;;;;;;;15.51;36.22;94164.50;5008932;28;20038;-73
2021/12/03 12:40:21;;;;;;;8.68;3.78;;;;;;;15.54;36.68;94182.38;5009007;28;20741;-70
2021/12/03 12:46:50;;;;;;;8.02;3.90;;;;;;;15.26;37.20;94194.59;5000697;28;20088;-69
2021/12/03 14:37:49;;;;;;;14.48;6.47;;;;;;;13.99;42.45;94236.44;5007607;28;20084;-71
2021/12/03 14:55:57;;;;;;;13.25;4.03;;;;;;;13.57;41.26;94245.22;5006612;28;20033;-70
2021/12/03 14:58:31;;;;;;;6.57;1.88;;;;;;;13.72;39.85;94242.25;5007086;28;20040;-70
2021/12/03 15:01:08;;;;;;;10.10;3.35;;;;;;;13.57;41.16;94239.25;5006616;28;20064;-72
2021/12/03 15:08:41;;;;;;;6.03;1.50;;;;;;;13.56;41.09;94266.94;5006220;28;20045;-72
2021/12/03 15:33:13;;;;;;;10.65;3.35;;;;;;;13.19;41.92;94279.59;4966140;28;20117;-69
2021/12/03 15:55:24;;;;;;;11.10;6.10;;;;;;;11.91;52.75;94355.47;4912354;29;20054;-70
2021/12/03 15:58:05;;;;;;;14.23;7.75;;;;;;;11.43;54.38;94329.94;4912760;29;20173;-71
2021/12/03 16:08:37;;;;;;;12.52;5.82;;;;;;;10.75;56.97;94355.69;4950157;29;20027;-71
2021/12/03 16:51:45;;;;;;;8.50;4.80;;;;;;;7.31;66.06;94364.97;5008343;28;20092;-70
2021/12/03 16:54:12;;;;;;;8.32;4.60;;;;;;;7.46;66.20;94387.16;5007252;28;20492;-71
2021/12/03 16:56:53;;;;;;;7.72;4.18;;;;;;;6.96;66.16;94324.34;5006728;28;20044;-72
2021/12/03 16:59:19;;;;;;;11.13;5.18;;;;;;;7.28;66.24;94386.53;5007988;28;20030;-73
2021/12/03 17:04:59;;;;;;;9.32;4.57;;;;;;;7.57;66.42;94442.09;5002457;28;20248;-72
2021/12/03 17:15:28;;;;;;;9.88;5.38;;;;;;;7.65;65.56;94478.41;5007195;28;20128;-73
2021/12/03 17:23:58;;;;;;;5.43;3.25;;;;;;;7.23;64.50;94439.81;5001864;28;20047;-67
2021/12/03 18:01:00;;;;;;;5.03;3.50;;;;;;;6.52;68.57;94563.44;5023274;28;20032;-73
2021/12/03 18:03:31;;;;;;;9.63;6.05;;;;;;;6.39;69.02;94579.47;5017681;28;20397;-65
2021/12/03 18:57:06;;;;;;;8.13;4.28;;;;;;;4.08;78.94;94547.31;5004028;28;20033;-73
2021/12/03 18:59:20;;;;;;;;;;;;;;;4.41;78.95;94610.50;5004978;28;20038;-74
2021/12/03 19:01:46;;;;;;;4.55;3.17;;;;;;;4.06;79.61;94584.84;5001165;28;20407;-76
2021/12/03 19:04:18;;;;;;;4.80;2.80;;;;;;;4.09;79.97;94606.84;5005230;28;20033;-74
2021/12/03 19:09:16;;;;;;;6.30;3.92;;;;;;;4.24;80.93;94624.84;5004624;28;20087;-77
2021/12/03 19:14:11;;;;;;;5.47;2.75;;;;;;;4.15;78.62;94583.59;5005075;28;20034;-75
2021/12/03 19:16:36;;;;;;;5.63;2.80;;;;;;;4.45;78.20;94626.53;5004292;28;20052;-74
2021/12/03 19:19:04;;;;;;;8.50;3.72;;;;;;;4.17;77.95;94576.72;5000346;28;20401;-72
2021/12/03 19:21:38;;;;;;;7.28;3.83;;;;;;;4.49;77.66;94622.91;5008922;28;20018;-77
2021/12/03 19:24:04;;;;;;;6.00;3.42;;;;;;;4.59;77.10;94640.31;5009452;28;20033;-74
2021/12/03 19:26:34;;;;;;;10.23;5.20;;;;;;;4.50;77.70;94640.72;5008717;28;20025;-75
2021/12/03 19:29:01;;;;;;;7.22;4.68;;;;;;;4.14;77.52;94623.59;5008693;28;20489;-76
2021/12/03 19:31:28;;;;;;;8.90;5.30;;;;;;;4.21;79.10;94631.81;5008243;28;20041;-75
2021/12/03 19:33:54;;;;;;;4.75;3.10;;;;;;;4.11;76.92;94599.94;5007568;28;20626;-76
2021/12/03 19:36:24;;;;;;;10.20;6.43;;;;;;;4.36;78.03;94653.28;5008881;28;20049;-75
2021/12/03 19:38:52;;;;;;;7.43;4.47;;;;;;;4.36;77.46;94658.38;5007891;28;20388;-78
2021/12/03 19:41:28;;;;;;;8.77;5.10;;;;;;;3.61;78.92;94551.09;5008777;28;20046;-73